Time;durP1;ratioP1;P1;durP2;ratioP2;P2;SDS_P1;SDS_P2;PMS_P1;PMS_P2;Temp;Humidity;BMP_temperature;BMP_pressure;BME280_temperature;BME280_humidity;BME280_pressure;Samples;Min_cycle;Max_cycle;Signal;HPM_P1;HPM_P2
2022/10/29 00:01:22;;;;;;;10.28;8.88;;;;;;;12.82;100.00;100450.47;1773412;79;21448;-59
2022/10/29 00:03:48;;;;;;;11.68;9.35;;;;;;;12.76;100.00;100456.84;1763413;79;21436;-59
2022/10/29 00:06:15;;;;;;;9.33;8.43;;;;;;;12.75;100.00;100457.78;1771751;79;21393;-59
2022/10/29 00:08:42;;;;;;;12.37;9.85;;;;;;;12.76;100.00;100454.67;1761240;79;22199;-60
2022/10/29 00:11:17;;;;;;;11.00;9.08;;;;;;;12.77;100.00;100451.10;1793615;78;21553;-59
2022/10/29 00:13:45;;;;;;;12.13;9.50;;;;;;;12.69;100.00;100437.36;1765268;79;21446;-59
2022/10/29 00:16:17;;;;;;;12.10;9.40;;;;;;;12.58;100.00;100437.33;1769264;78;21495;-60
2022/10/29 00:18:45;;;;;;;11.10;9.30;;;;;;;12.44;100.00;100439.16;1732744;81;21005;-58
2022/10/29 00:21:14;;;;;;;12.25;9.28;;;;;;;12.35;100.00;100442.13;1778169;79;21776;-58
2022/10/29 00:23:41;;;;;;;10.35;9.18;;;;;;;12.31;100.00;100447.13;1779192;79;21714;-57
2022/10/29 00:26:08;;;;;;;10.10;8.97;;;;;;;12.27;100.00;100435.83;1757142;79;21584;-57
2022/10/29 00:28:37;;;;;;;10.38;9.23;;;;;;;12.27;100.00;100435.83;1757206;79;21531;-58
2022/10/29 00:31:05;;;;;;;11.35;9.35;;;;;;;12.24;100.00;100427.17;1730782;79;21083;-57
2022/10/29 00:33:32;;;;;;;11.65;9.10;;;;;;;12.15;100.00;100424.88;1785218;78;21871;-57
2022/10/29 00:36:01;;;;;;;10.38;9.18;;;;;;;12.05;100.00;100414.70;1765726;79;21454;-57
2022/10/29 00:38:30;;;;;;;11.68;10.18;;;;;;;11.94;100.00;100414.23;1772959;79;21553;-57
2022/10/29 00:40:56;;;;;;;13.53;9.30;;;;;;;11.81;100.00;100412.89;1754090;79;21430;-58
2022/10/29 00:43:25;;;;;;;12.30;9.18;;;;;;;11.79;100.00;100413.40;1740947;78;21490;-57
2022/10/29 00:46:10;;;;;;;9.90;8.40;;;;;;;11.81;100.00;100418.16;1786583;79;22075;-58
2022/10/29 00:48:46;;;;;;;12.13;9.35;;;;;;;11.79;100.00;100411.65;1780903;79;21508;-58
2022/10/29 00:51:13;;;;;;;12.07;9.25;;;;;;;11.74;100.00;100408.77;1795811;79;20937;-58
2022/10/29 00:53:48;;;;;;;12.18;9.23;;;;;;;11.71;100.00;100404.92;1759495;78;21466;-58
2022/10/29 00:56:14;;;;;;;11.60;9.78;;;;;;;11.64;100.00;100402.51;1782360;79;21437;-58
2022/10/29 00:58:42;;;;;;;10.48;9.25;;;;;;;11.56;100.00;100404.53;1733119;80;22106;-59
2022/10/29 01:01:09;;;;;;;9.40;8.47;;;;;;;11.50;100.00;100412.19;1739491;81;21653;-58
2022/10/29 01:03:35;;;;;;;11.95;9.13;;;;;;;11.50;100.00;100406.07;1751915;80;21546;-59
2022/10/29 01:06:03;;;;;;;11.80;8.97;;;;;;;11.52;100.00;100402.92;1813729;77;21684;-58
2022/10/29 01:08:30;;;;;;;13.70;9.23;;;;;;;11.57;100.00;100401.47;1805078;77;21491;-58
2022/10/29 01:11:17;;;;;;;;;;;;;;;11.56;100.00;100395.31;1813443;77;21885;-59
2022/10/29 01:14:29;;;;;;;12.18;8.85;;;;;;;11.49;100.00;100400.42;1768284;78;20444;-59
2022/10/29 01:17:19;;;;;;;9.90;8.93;;;;;;;11.42;100.00;100398.91;1805895;77;21418;-59
2022/10/29 01:20:13;;;;;;;13.48;9.10;;;;;;;11.34;100.00;100396.53;1807267;77;21564;-59
2022/10/29 01:22:58;;;;;;;10.25;8.78;;;;;;;11.31;100.00;100390.05;1826909;77;20974;-59
2022/10/29 01:26:04;;;;;;;9.30;8.23;;;;;;;11.35;100.00;100406.59;1824751;76;21958;-59
2022/10/29 01:28:59;;;;;;;10.32;9.30;;;;;;;11.38;100.00;100402.56;1814694;77;21177;-59
2022/10/29 01:31:55;;;;;;;12.98;9.28;;;;;;;11.30;100.00;100405.42;1806480;78;21434;-59
2022/10/29 01:34:52;;;;;;;12.03;8.65;;;;;;;11.25;100.00;100408.22;1811740;77;21485;-59
2022/10/29 01:37:29;;;;;;;11.60;8.80;;;;;;;11.20;100.00;100394.34;1815514;77;21045;-59
2022/10/29 01:40:01;;;;;;;10.20;9.08;;;;;;;11.12;100.00;100396.37;1797873;78;22099;-59
2022/10/29 01:42:43;;;;;;;12.10;9.05;;;;;;;11.10;100.00;100403.47;1813914;76;21418;-59
2022/10/29 01:45:25;;;;;;;12.10;9.03;;;;;;;11.11;100.00;100401.22;1829671;77;21505;-60
2022/10/29 01:48:18;;;;;;;14.28;8.75;;;;;;;11.10;100.00;100406.10;1831846;77;21688;-59
2022/10/29 01:50:49;;;;;;;9.98;8.65;;;;;;;11.09;100.00;100402.62;1698045;83;21453;-59
2022/10/29 01:53:15;;;;;;;11.38;9.58;;;;;;;11.08;100.00;100403.98;1761484;79;21836;-61
2022/10/29 01:55:42;;;;;;;13.35;9.18;;;;;;;11.10;100.00;100396.42;1813547;77;21513;-59
2022/10/29 01:58:09;;;;;;;15.03;9.25;;;;;;;11.12;100.00;100393.75;1810022;78;21522;-59
2022/10/29 02:00:47;;;;;;;;;;;;;;;11.16;100.00;100386.62;1828395;76;21671;-59
2022/10/29 02:03:43;;;;;;;9.08;8.18;;;;;;;11.08;100.00;100384.24;1809551;77;20135;-59
2022/10/29 02:06:37;;;;;;;12.30;8.63;;;;;;;11.03;100.00;100389.64;1814991;77;21781;-59
2022/10/29 02:09:26;;;;;;;14.05;8.75;;;;;;;10.96;100.00;100378.90;1824337;77;21478;-59
2022/10/29 02:12:26;;;;;;;12.03;9.33;;;;;;;10.91;100.00;100376.90;1827023;77;21443;-59
2022/10/29 02:15:08;;;;;;;12.03;8.35;;;;;;;10.86;100.00;100373.08;1829351;76;21043;-59
2022/10/29 02:17:34;;;;;;;12.73;9.23;;;;;;;10.88;100.00;100380.47;1806707;77;21495;-59
2022/10/29 02:20:06;;;;;;;12.10;9.08;;;;;;;10.88;100.00;100377.84;1819626;77;21974;-59
2022/10/29 02:22:33;;;;;;;11.18;8.73;;;;;;;10.82;100.00;100375.41;1759866;80;21552;-59
2022/10/29 02:25:00;;;;;;;10.58;9.15;;;;;;;10.78;100.00;100367.69;1833659;77;21432;-59
2022/10/29 02:27:27;;;;;;;13.62;8.75;;;;;;;10.75;100.00;100365.14;1795634;77;21438;-60
2022/10/29 02:29:53;;;;;;;11.55;8.50;;;;;;;10.71;100.00;100363.06;1804564;77;21506;-60
2022/10/29 02:32:20;;;;;;;9.18;8.28;;;;;;;10.76;100.00;100366.88;1817715;76;21979;-60
2022/10/29 02:34:47;;;;;;;9.97;7.90;;;;;;;10.76;100.00;100370.36;1832722;77;20921;-60
2022/10/29 02:37:13;;;;;;;11.88;8.50;;;;;;;10.73;100.00;100373.08;1810149;77;21497;-60
2022/10/29 02:39:40;;;;;;;11.95;9.73;;;;;;;10.71;100.00;100374.90;1741911;79;21112;-61
2022/10/29 02:42:07;;;;;;;12.80;9.35;;;;;;;10.69;100.00;100372.77;1836096;76;21452;-60
2022/10/29 02:44:33;;;;;;;10.38;8.58;;;;;;;10.58;100.00;100377.05;1834504;76;22006;-60
2022/10/29 02:47:00;;;;;;;9.25;8.35;;;;;;;10.55;100.00;100370.59;1823952;77;21435;-60
2022/10/29 02:49:27;;;;;;;11.40;9.03;;;;;;;10.55;100.00;100370.59;1802102;77;21408;-61
2022/10/29 02:51:53;;;;;;;11.73;9.53;;;;;;;10.50;100.00;100365.91;1792430;77;20985;-60
2022/10/29 02:54:19;;;;;;;11.15;8.85;;;;;;;10.50;100.00;100362.82;1827888;77;21689;-60
2022/10/29 02:56:46;;;;;;;12.35;9.25;;;;;;;10.52;100.00;100357.52;1835784;77;21798;-60
2022/10/29 02:59:13;;;;;;;10.38;9.25;;;;;;;10.51;100.00;100359.30;1815242;77;21554;-60
2022/10/29 03:01:39;;;;;;;12.53;9.38;;;;;;;10.47;100.00;100349.80;1813528;77;20955;-61
2022/10/29 03:04:06;;;;;;;11.55;9.38;;;;;;;10.45;100.00;100347.67;1808003;76;21464;-61
2022/10/29 03:06:32;;;;;;;11.22;9.50;;;;;;;10.44;100.00;100352.50;1827640;76;21482;-60
2022/10/29 03:09:00;;;;;;;14.45;9.33;;;;;;;10.38;100.00;100355.33;1742194;81;21806;-60
2022/10/29 03:11:26;;;;;;;13.20;9.05;;;;;;;10.39;100.00;100341.27;1733818;80;21478;-60
2022/10/29 03:13:54;;;;;;;12.43;9.80;;;;;;;10.38;100.00;100347.45;1730327;80;21454;-60
2022/10/29 03:16:21;;;;;;;12.15;9.70;;;;;;;10.41;100.00;100342.07;1815451;76;21500;-60
2022/10/29 03:18:48;;;;;;;12.73;9.78;;;;;;;10.40;100.00;100344.78;1796046;78;21474;-60
2022/10/29 03:21:15;;;;;;;9.70;8.75;;;;;;;10.39;100.00;100346.52;1785587;78;21931;-59
2022/10/29 03:23:43;;;;;;;11.70;9.73;;;;;;;10.39;100.00;100337.32;1799479;77;20994;-60
2022/10/29 03:26:09;;;;;;;12.70;9.48;;;;;;;10.36;100.00;100336.13;1819890;77;21554;-60
2022/10/29 03:28:37;;;;;;;;;;;;;;;10.35;100.00;100338.33;1811658;78;21036;-60
2022/10/29 03:31:04;;;;;;;11.70;8.93;;;;;;;10.29;100.00;100338.49;1811738;77;20439;-60
2022/10/29 03:33:31;;;;;;;16.75;9.53;;;;;;;10.30;100.00;100339.80;1803436;77;21993;-60
2022/10/29 03:35:59;;;;;;;10.35;8.68;;;;;;;10.29;100.00;100338.03;1811465;77;21419;-60
2022/10/29 03:38:26;;;;;;;12.05;9.55;;;;;;;10.28;100.00;100334.12;1806794;78;20962;-61
2022/10/29 03:40:53;;;;;;;12.90;9.65;;;;;;;10.25;100.00;100329.84;1789168;78;21427;-61
2022/10/29 03:43:19;;;;;;;10.50;9.00;;;;;;;10.24;100.00;100332.50;1786391;77;21508;-60
2022/10/29 03:45:53;;;;;;;11.65;9.10;;;;;;;10.18;100.00;100319.56;1782677;77;21826;-60
2022/10/29 03:48:21;;;;;;;11.20;9.28;;;;;;;10.13;100.00;100315.31;1808868;77;21552;-60
2022/10/29 03:51:01;;;;;;;10.08;9.13;;;;;;;10.10;100.00;100318.02;1787724;78;21574;-61
2022/10/29 03:53:28;;;;;;;13.18;9.93;;;;;;;10.07;100.00;100314.63;1786482;79;21519;-60
2022/10/29 03:55:55;;;;;;;10.00;9.00;;;;;;;10.05;100.00;100316.44;1806295;76;21433;-59
2022/10/29 03:58:22;;;;;;;12.60;9.25;;;;;;;10.00;100.00;100319.22;1785830;78;22356;-59
2022/10/29 04:01:00;;;;;;;15.08;10.58;;;;;;;9.94;100.00;100316.75;1793615;78;21597;-59
2022/10/29 04:03:28;;;;;;;14.13;8.88;;;;;;;9.93;100.00;100313.27;1803164;77;21456;-59
2022/10/29 04:05:55;;;;;;;12.15;9.53;;;;;;;9.95;100.00;100306.66;1798438;77;21421;-59
2022/10/29 04:08:24;;;;;;;11.73;9.60;;;;;;;9.97;100.00;100297.42;1809956;77;20946;-59
2022/10/29 04:10:51;;;;;;;15.35;8.65;;;;;;;9.97;100.00;100289.55;1829258;77;21735;-59
2022/10/29 04:13:19;;;;;;;11.05;9.40;;;;;;;9.93;100.00;100289.62;1817680;77;21175;-59
2022/10/29 04:15:46;;;;;;;11.33;9.43;;;;;;;9.94;100.00;100291.36;1826912;77;21057;-59
2022/10/29 04:18:13;;;;;;;11.88;8.73;;;;;;;9.96;100.00;100281.24;1823453;77;21573;-59
2022/10/29 04:20:40;;;;;;;12.30;9.23;;;;;;;9.93;100.00;100285.69;1810159;77;21558;-59
2022/10/29 04:23:07;;;;;;;10.78;9.68;;;;;;;9.91;100.00;100291.91;1816237;77;21458;-59
2022/10/29 04:25:35;;;;;;;12.23;9.15;;;;;;;9.88;100.00;100298.08;1800609;78;21481;-59
2022/10/29 04:28:02;;;;;;;13.60;9.45;;;;;;;9.86;100.00;100293.80;1812412;77;21533;-59
2022/10/29 04:30:28;;;;;;;13.32;10.13;;;;;;;9.77;100.00;100305.88;1806966;76;21421;-59
2022/10/29 04:32:58;;;;;;;16.50;9.85;;;;;;;9.72;100.00;100300.31;1805102;76;21443;-59
2022/10/29 04:35:26;;;;;;;11.88;9.43;;;;;;;9.71;100.00;100301.20;1816464;77;21958;-59
2022/10/29 04:37:56;;;;;;;14.63;10.05;;;;;;;9.73;100.00;100296.77;1822023;77;21561;-56
2022/10/29 04:40:23;;;;;;;15.80;10.35;;;;;;;9.72;100.00;100297.69;1830963;77;21020;-56
2022/10/29 04:42:50;;;;;;;11.57;9.78;;;;;;;9.74;100.00;100299.81;1835933;77;21467;-56
2022/10/29 04:45:17;;;;;;;10.85;9.45;;;;;;;9.71;100.00;100295.95;1829685;77;21506;-56
2022/10/29 04:47:45;;;;;;;11.97;10.63;;;;;;;9.70;100.00;100295.98;1832042;77;21804;-55
2022/10/29 04:50:11;;;;;;;12.58;10.23;;;;;;;9.69;100.00;100296.45;1829013;77;21556;-54
2022/10/29 04:52:40;;;;;;;13.05;10.78;;;;;;;9.66;100.00;100292.62;1814421;76;21436;-55
2022/10/29 04:55:07;;;;;;;13.55;10.25;;;;;;;9.67;100.00;100287.76;1809885;77;20939;-58
2022/10/29 04:57:35;;;;;;;13.32;10.53;;;;;;;9.70;100.00;100277.61;1810963;77;21445;-57
2022/10/29 05:00:03;;;;;;;14.38;10.18;;;;;;;9.72;100.00;100283.70;1798385;76;21559;-60
2022/10/29 05:02:29;;;;;;;;;;;;;;;9.72;100.00;100288.95;1807568;76;21479;-59
2022/10/29 05:04:56;;;;;;;15.75;10.15;;;;;;;9.61;100.00;100289.25;1820343;76;20405;-60
2022/10/29 05:07:23;;;;;;;11.83;10.05;;;;;;;9.67;100.00;100294.78;1811872;76;21649;-59
2022/10/29 05:09:49;;;;;;;15.63;10.78;;;;;;;9.68;100.00;100297.38;1800935;77;20937;-59
2022/10/29 05:12:17;;;;;;;13.95;10.60;;;;;;;9.72;100.00;100291.59;1829852;76;21431;-60
2022/10/29 05:14:44;;;;;;;15.63;10.55;;;;;;;9.70;100.00;100287.69;1826499;77;21416;-59
2022/10/29 05:17:10;;;;;;;16.37;10.50;;;;;;;9.70;100.00;100286.80;1822613;76;21598;-59
2022/10/29 05:19:37;;;;;;;14.33;11.40;;;;;;;9.72;100.00;100281.93;1808358;77;21590;-59
2022/10/29 05:22:04;;;;;;;12.15;10.85;;;;;;;9.79;100.00;100275.17;1814969;76;21436;-60
2022/10/29 05:24:31;;;;;;;12.28;9.75;;;;;;;9.85;100.00;100272.36;1803948;76;21491;-59
2022/10/29 05:26:58;;;;;;;11.10;9.95;;;;;;;9.88;100.00;100269.20;1782744;77;21569;-60
2022/10/29 05:29:24;;;;;;;12.93;11.60;;;;;;;9.92;100.00;100263.39;1814785;77;21547;-60
2022/10/29 05:31:53;;;;;;;16.93;11.20;;;;;;;9.91;100.00;100269.11;1736860;79;21645;-59
2022/10/29 05:34:20;;;;;;;12.35;10.58;;;;;;;9.91;100.00;100266.48;1735613;80;20953;-59
2022/10/29 05:36:47;;;;;;;13.75;10.38;;;;;;;9.90;100.00;100270.47;1746906;79;21902;-59
2022/10/29 05:39:15;;;;;;;14.13;10.93;;;;;;;10.02;100.00;100270.11;1739534;80;21442;-61
2022/10/29 05:41:42;;;;;;;13.65;11.20;;;;;;;9.96;100.00;100274.67;1736835;80;21031;-59
2022/10/29 05:44:08;;;;;;;15.15;11.12;;;;;;;10.02;100.00;100282.36;1734441;79;21595;-59
2022/10/29 05:46:36;;;;;;;13.65;10.30;;;;;;;10.05;100.00;100284.45;1702718;81;21156;-61
2022/10/29 05:49:03;;;;;;;11.80;10.68;;;;;;;10.08;100.00;100281.73;1727392;80;21414;-59
2022/10/29 05:51:30;;;;;;;12.98;10.60;;;;;;;10.10;100.00;100278.61;1737024;79;21751;-58
2022/10/29 05:53:56;;;;;;;12.37;10.72;;;;;;;10.16;100.00;100271.45;1728492;80;21542;-58
2022/10/29 05:56:23;;;;;;;15.95;10.58;;;;;;;10.27;100.00;100273.29;1749615;79;21302;-59
2022/10/29 05:58:50;;;;;;;15.25;10.30;;;;;;;10.40;100.00;100271.17;1753802;80;21139;-59
2022/10/29 06:01:21;;;;;;;15.73;10.53;;;;;;;10.49;100.00;100262.95;1743368;79;22011;-59
2022/10/29 06:03:46;;;;;;;15.63;11.60;;;;;;;10.56;100.00;100264.95;1732830;79;21565;-61
2022/10/29 06:06:13;;;;;;;13.83;11.20;;;;;;;10.59;100.00;100270.11;1741550;79;21561;-57
2022/10/29 06:08:41;;;;;;;16.35;11.50;;;;;;;10.61;100.00;100269.14;1743018;79;21492;-56
2022/10/29 06:11:08;;;;;;;16.32;11.45;;;;;;;10.66;100.00;100263.28;1741255;79;21479;-57
2022/10/29 06:13:35;;;;;;;15.03;11.75;;;;;;;10.74;100.00;100263.03;1728944;79;21808;-58
2022/10/29 06:16:03;;;;;;;13.78;10.45;;;;;;;10.81;100.00;100260.59;1742926;79;21499;-60
2022/10/29 06:18:30;;;;;;;13.20;10.58;;;;;;;10.91;100.00;100258.51;1746406;79;21808;-58
2022/10/29 06:20:59;;;;;;;18.60;12.23;;;;;;;11.05;100.00;100256.70;1751670;79;21672;-56
2022/10/29 06:23:27;;;;;;;14.18;11.20;;;;;;;11.07;100.00;100253.55;1735922;79;21594;-59
2022/10/29 06:25:54;;;;;;;14.68;11.55;;;;;;;11.10;100.00;100254.78;1740490;79;21820;-57
2022/10/29 06:28:20;;;;;;;12.33;10.53;;;;;;;11.18;100.00;100257.98;1720833;80;21497;-58
2022/10/29 06:30:48;;;;;;;15.03;11.15;;;;;;;11.33;100.00;100247.37;1723736;80;22073;-58
2022/10/29 06:33:18;;;;;;;21.30;11.35;;;;;;;11.41;100.00;100244.45;1730180;79;21033;-58
2022/10/29 06:35:44;;;;;;;14.30;11.00;;;;;;;11.47;100.00;100242.47;1741406;79;21531;-57
2022/10/29 06:38:12;;;;;;;15.05;11.33;;;;;;;11.62;100.00;100246.30;1731491;79;21830;-59
2022/10/29 06:40:39;;;;;;;13.63;10.97;;;;;;;11.62;100.00;100246.30;1727950;79;21508;-57
2022/10/29 06:43:09;;;;;;;14.95;11.35;;;;;;;11.70;100.00;100240.75;1733413;80;21672;-57
2022/10/29 06:45:36;;;;;;;15.60;11.40;;;;;;;11.77;100.00;100238.28;1734892;79;21612;-57
2022/10/29 06:48:04;;;;;;;14.53;11.08;;;;;;;11.83;100.00;100240.67;1726358;79;21598;-57
2022/10/29 06:50:31;;;;;;;20.95;11.30;;;;;;;11.92;100.00;100238.16;1731085;79;21839;-57
2022/10/29 06:53:03;;;;;;;11.38;10.08;;;;;;;11.99;100.00;100226.47;1736389;80;21518;-58
2022/10/29 06:55:32;;;;;;;13.05;10.43;;;;;;;12.04;100.00;100229.78;1727180;80;21017;-58
2022/10/29 06:58:01;;;;;;;14.28;10.82;;;;;;;12.08;100.00;100221.30;1733683;79;21497;-58
2022/10/29 07:00:28;;;;;;;14.23;10.30;;;;;;;12.11;100.00;100218.98;1729692;79;21624;-58
2022/10/29 07:02:55;;;;;;;14.25;10.28;;;;;;;12.16;100.00;100215.25;1787083;77;21879;-59
2022/10/29 09:06:42;;;;;;;17.52;10.70;;;;;;;14.02;100.00;100110.59;1846233;77;26806;-57
2022/10/29 09:09:32;;;;;;;15.43;9.48;;;;;;;14.46;100.00;100113.72;1815334;78;21531;-58
2022/10/29 09:12:25;;;;;;;10.85;8.55;;;;;;;14.90;100.00;100097.31;1826447;77;21867;-57
2022/10/29 09:15:06;;;;;;;12.60;8.10;;;;;;;15.29;100.00;100098.74;1806313;77;21401;-58
2022/10/29 09:17:42;;;;;;;12.50;8.33;;;;;;;15.58;100.00;100090.03;1811108;78;21481;-58
2022/10/29 09:20:24;;;;;;;11.30;9.35;;;;;;;15.80;100.00;100075.57;1818686;77;21552;-60
2022/10/29 09:23:05;;;;;;;9.98;8.10;;;;;;;15.98;100.00;100079.45;1810117;77;21500;-59
2022/10/29 09:25:38;;;;;;;11.25;9.20;;;;;;;16.05;100.00;100069.72;1823140;76;22087;-59
2022/10/29 09:28:44;;;;;;;9.40;8.38;;;;;;;16.15;100.00;100076.66;1807925;78;21498;-60
2022/10/29 09:31:28;;;;;;;11.73;9.03;;;;;;;16.21;100.00;100064.34;1809635;78;21642;-59
2022/10/29 09:33:57;;;;;;;11.78;8.48;;;;;;;16.33;100.00;100062.75;1808144;78;21410;-60
2022/10/29 09:36:24;;;;;;;9.88;7.83;;;;;;;16.45;100.00;100053.22;1815029;77;21421;-60
2022/10/29 09:39:01;;;;;;;9.00;8.10;;;;;;;16.54;100.00;100044.70;1752089;80;21886;-60
2022/10/29 09:41:31;;;;;;;8.97;7.60;;;;;;;16.62;100.00;100042.89;1814214;78;21513;-59
2022/10/29 09:44:21;;;;;;;9.10;7.83;;;;;;;16.64;100.00;100044.50;1797905;77;21620;-59
2022/10/29 09:47:16;;;;;;;8.88;7.95;;;;;;;16.64;100.00;100036.53;1793919;77;21595;-59
2022/10/29 09:50:01;;;;;;;9.90;7.60;;;;;;;16.63;100.00;100028.20;1807770;77;21559;-60
2022/10/29 09:52:31;;;;;;;7.45;6.72;;;;;;;16.68;100.00;100018.12;1801939;78;21816;-59
2022/10/29 09:55:00;;;;;;;8.53;7.03;;;;;;;16.70;100.00;100022.87;1812094;77;21385;-60
2022/10/29 09:57:28;;;;;;;7.97;6.78;;;;;;;16.78;100.00;100026.38;1805326;77;21454;-61
2022/10/29 09:59:59;;;;;;;12.98;6.70;;;;;;;16.99;100.00;100021.56;1818707;77;21450;-60
2022/10/29 10:02:42;;;;;;;8.68;7.67;;;;;;;17.19;100.00;100009.65;1811092;77;21468;-60
2022/10/29 10:05:15;;;;;;;11.10;6.40;;;;;;;17.32;100.00;100001.25;1799834;77;21795;-60
2022/10/29 10:07:46;;;;;;;10.60;7.33;;;;;;;17.40;100.00;99989.27;1817034;77;20943;-60
2022/10/29 10:10:21;;;;;;;10.53;7.37;;;;;;;17.39;100.00;99982.27;1789624;77;21833;-60
2022/10/29 10:12:49;;;;;;;10.60;7.45;;;;;;;17.42;100.00;99988.70;1809154;77;21584;-60
2022/10/29 10:15:36;;;;;;;8.68;7.10;;;;;;;17.41;100.00;99979.88;1815258;77;21613;-59
2022/10/29 10:18:16;;;;;;;8.30;6.95;;;;;;;17.40;100.00;99982.62;1815973;76;21748;-59
2022/10/29 10:20:45;;;;;;;8.80;6.80;;;;;;;17.41;100.00;99970.58;1813896;77;21485;-60
2022/10/29 10:23:31;;;;;;;7.78;6.08;;;;;;;17.41;100.00;99961.27;1805029;77;21553;-60
2022/10/29 10:25:58;;;;;;;7.47;5.90;;;;;;;17.41;100.00;99972.39;1814188;77;20965;-59
2022/10/29 10:28:28;;;;;;;7.05;6.17;;;;;;;17.42;100.00;99966.10;1820490;78;21571;-59
2022/10/29 10:31:13;;;;;;;6.87;6.17;;;;;;;17.52;100.00;99957.91;1806507;77;21755;-59
2022/10/29 10:33:50;;;;;;;8.38;5.92;;;;;;;17.66;100.00;99941.02;1814582;78;21018;-60
2022/10/29 10:36:19;;;;;;;10.20;6.47;;;;;;;17.71;100.00;99940.23;1807735;78;21553;-59
2022/10/29 10:38:49;;;;;;;7.00;6.05;;;;;;;17.72;100.00;99928.62;1824458;77;21430;-60
2022/10/29 10:41:21;;;;;;;7.15;6.03;;;;;;;17.70;100.00;99922.08;1821426;78;21497;-60
2022/10/29 10:43:49;;;;;;;7.50;6.30;;;;;;;17.71;100.00;99917.64;1813865;77;21868;-58
2022/10/29 10:46:26;;;;;;;9.65;6.12;;;;;;;17.68;100.00;99907.20;1808252;78;22151;-59
2022/10/29 10:49:03;;;;;;;10.07;5.90;;;;;;;17.65;100.00;99906.06;1816552;78;20975;-60
2022/10/29 10:51:33;;;;;;;6.80;5.83;;;;;;;17.63;100.00;99890.70;1815208;78;21585;-60
2022/10/29 10:54:02;;;;;;;6.83;6.12;;;;;;;17.65;100.00;99904.73;1815459;77;21653;-62
2022/10/29 10:56:29;;;;;;;7.05;5.58;;;;;;;17.65;100.00;99890.98;1805461;77;21786;-60
2022/10/29 10:59:11;;;;;;;10.32;5.25;;;;;;;17.64;100.00;99894.59;1812709;77;21091;-59
2022/10/29 11:01:42;;;;;;;8.50;5.92;;;;;;;17.68;100.00;99880.61;1815821;78;21548;-60
2022/10/29 11:04:31;;;;;;;9.65;6.08;;;;;;;17.79;100.00;99888.70;1817917;77;21521;-59
2022/10/29 11:07:00;;;;;;;;;;;;;;;17.79;100.00;99886.04;1771308;79;21570;-59
2022/10/29 11:09:31;;;;;;;8.75;5.60;;;;;;;17.66;100.00;99884.70;1737625;79;21876;-59
2022/10/29 11:12:04;;;;;;;9.18;6.78;;;;;;;17.64;100.00;99883.11;1772449;80;21579;-63
2022/10/29 11:14:45;;;;;;;8.10;6.00;;;;;;;17.58;100.00;99876.89;1769104;80;21560;-59
2022/10/29 11:17:28;;;;;;;8.18;6.58;;;;;;;17.56;100.00;99877.48;1817883;77;21104;-59
2022/10/29 11:19:59;;;;;;;8.35;6.53;;;;;;;17.50;100.00;99883.58;1796492;77;21059;-60
2022/10/29 11:22:54;;;;;;;7.10;6.40;;;;;;;17.48;100.00;99892.14;1809823;77;21956;-61
2022/10/29 11:25:30;;;;;;;9.18;6.58;;;;;;;17.44;100.00;99885.33;1822777;77;21434;-61
2022/10/29 11:28:21;;;;;;;10.45;6.42;;;;;;;17.43;100.00;99883.61;1803443;78;21572;-61
2022/10/29 11:30:53;;;;;;;9.95;6.10;;;;;;;17.47;100.00;99879.78;1806679;77;21517;-60
2022/10/29 11:33:25;;;;;;;10.20;6.22;;;;;;;17.58;100.00;99868.92;1808840;78;20966;-59
2022/10/29 11:36:07;;;;;;;7.25;6.25;;;;;;;17.60;100.00;99864.34;1814414;77;21891;-60
2022/10/29 11:38:42;;;;;;;6.83;6.12;;;;;;;17.62;100.00;99854.45;1747652;80;21477;-60
2022/10/29 11:41:32;;;;;;;7.03;6.28;;;;;;;17.65;100.00;99854.22;1763898;79;21670;-60
2022/10/29 11:43:59;;;;;;;7.08;6.37;;;;;;;17.66;100.00;99850.62;1775661;78;21053;-60
2022/10/29 11:46:53;;;;;;;7.50;6.05;;;;;;;17.65;100.00;99847.12;1767897;79;21537;-60
2022/10/29 11:49:58;;;;;;;9.13;6.47;;;;;;;17.67;100.00;99843.03;1688768;80;22061;-59
2022/10/29 11:52:46;;;;;;;12.18;7.00;;;;;;;17.65;100.00;99830.29;1799014;78;21547;-60
2022/10/29 11:55:23;;;;;;;7.30;6.62;;;;;;;17.69;100.00;99829.98;1814193;78;27437;-60
2022/10/29 11:58:02;;;;;;;7.40;6.33;;;;;;;17.78;100.00;99833.83;1810126;77;21635;-59
2022/10/29 12:00:50;;;;;;;8.45;7.40;;;;;;;17.82;100.00;99826.00;1801421;78;21559;-59
2022/10/29 12:04:02;;;;;;;8.55;6.97;;;;;;;17.84;100.00;99816.14;1746141;79;21569;-60
2022/10/29 12:06:54;;;;;;;8.45;6.47;;;;;;;17.82;100.00;99819.35;1810999;77;22215;-60
2022/10/29 12:09:51;;;;;;;7.72;6.20;;;;;;;17.79;100.00;99812.91;1813342;78;21507;-60
2022/10/29 12:12:38;;;;;;;10.80;6.37;;;;;;;17.79;100.00;99811.58;1809156;78;21580;-60
2022/10/29 12:15:38;;;;;;;9.38;6.15;;;;;;;17.79;100.00;99811.58;1818847;77;21407;-60
2022/10/29 12:18:33;;;;;;;8.35;6.53;;;;;;;17.82;100.00;99806.05;1813275;78;21525;-60
2022/10/29 12:21:43;;;;;;;6.90;5.72;;;;;;;17.94;100.00;99802.19;1811131;77;21653;-60
2022/10/29 12:24:34;;;;;;;10.88;6.42;;;;;;;18.13;100.00;99793.25;1807920;77;21656;-62
2022/10/29 12:27:13;;;;;;;9.15;6.37;;;;;;;18.24;100.00;99789.83;1815765;77;21051;-60
2022/10/29 12:29:46;;;;;;;8.23;6.10;;;;;;;18.29;100.00;99783.21;1805987;77;21571;-59
2022/10/29 12:32:36;;;;;;;9.53;6.28;;;;;;;18.32;100.00;99774.14;1801536;77;21726;-60
2022/10/29 12:35:43;;;;;;;8.10;6.47;;;;;;;18.40;100.00;99770.45;1812360;78;21514;-59
2022/10/29 12:38:22;;;;;;;8.10;6.55;;;;;;;18.45;100.00;99770.95;1786223;78;21545;-59
2022/10/29 12:40:52;;;;;;;8.40;5.90;;;;;;;18.42;100.00;99765.00;1804055;77;21427;-60
2022/10/29 12:43:28;;;;;;;6.45;5.85;;;;;;;18.33;100.00;99768.33;1802818;78;21411;-59
2022/10/29 12:46:34;;;;;;;6.22;5.55;;;;;;;18.33;100.00;99770.99;1823787;77;22053;-60
2022/10/29 12:49:40;;;;;;;10.20;5.67;;;;;;;18.27;100.00;99763.84;1824550;78;21603;-59
2022/10/29 12:52:28;;;;;;;9.37;6.10;;;;;;;18.31;100.00;99761.81;1805284;78;21455;-59
2022/10/29 12:54:54;;;;;;;;;;;;;;;18.39;100.00;99753.27;1807754;77;21414;-58
2022/10/29 12:57:33;;;;;;;7.43;6.27;;;;;;;18.32;100.00;99751.52;1812888;78;20436;-58
2022/10/29 13:00:30;;;;;;;12.40;5.90;;;;;;;18.32;100.00;99749.34;1819423;78;21502;-58
2022/10/29 13:02:57;;;;;;;10.00;6.08;;;;;;;18.29;100.00;99744.63;1814107;78;21026;-58
2022/10/29 13:05:40;;;;;;;6.10;5.50;;;;;;;18.22;100.00;99747.36;1817066;78;22854;-58
2022/10/29 13:08:10;;;;;;;8.13;5.65;;;;;;;18.22;100.00;99745.19;1783070;78;21468;-58
2022/10/29 13:10:50;;;;;;;8.48;6.35;;;;;;;18.17;100.00;99744.17;1804966;78;21582;-59
2022/10/29 13:13:24;;;;;;;7.65;5.87;;;;;;;18.14;100.00;99744.88;1805499;78;21495;-59
2022/10/29 13:16:04;;;;;;;8.55;5.97;;;;;;;18.12;100.00;99733.04;1811112;78;21505;-58
2022/10/29 13:18:42;;;;;;;6.35;5.50;;;;;;;18.05;100.00;99725.13;1820976;78;20946;-59
2022/10/29 13:21:09;;;;;;;8.63;5.58;;;;;;;18.02;100.00;99724.84;1816129;77;21582;-58
2022/10/29 13:23:38;;;;;;;9.68;6.65;;;;;;;18.04;100.00;99715.43;1821929;77;21500;-59
2022/10/29 13:26:06;;;;;;;8.85;6.15;;;;;;;18.13;100.00;99717.91;1809170;78;22005;-59
2022/10/29 13:28:42;;;;;;;11.38;7.00;;;;;;;18.20;100.00;99714.69;1823525;78;21620;-58
2022/10/29 13:31:14;;;;;;;10.13;6.72;;;;;;;18.19;100.00;99702.82;1820635;77;20961;-58
2022/10/29 13:33:46;;;;;;;9.13;6.53;;;;;;;18.15;100.00;99688.89;1803888;78;21597;-58
2022/10/29 13:36:22;;;;;;;9.73;6.83;;;;;;;18.15;100.00;99688.89;1807707;77;21636;-60
2022/10/29 13:39:02;;;;;;;9.23;7.22;;;;;;;18.10;100.00;99687.04;1817623;77;21794;-58
2022/10/29 13:41:41;;;;;;;7.92;6.28;;;;;;;18.07;100.00;99687.28;1814088;77;21553;-58
2022/10/29 13:44:21;;;;;;;;;;;;;;;18.01;100.00;99689.08;1805673;78;21584;-58
2022/10/29 13:46:56;;;;;;;7.67;6.15;;;;;;;17.87;100.00;99682.92;1821105;78;20510;-58